Time;durP1;ratioP1;P1;durP2;ratioP2;P2;SDS_P1;SDS_P2;PMS_P1;PMS_P2;Temp;Humidity;BMP_temperature;BMP_pressure;BME280_temperature;BME280_humidity;BME280_pressure;Samples;Min_cycle;Max_cycle;Signal;HPM_P1;HPM_P2
2022/02/01 00:00:56;;;;;;;;;;;;;;;1.56;96.94;99361.84;5008469;28;20403;-62
2022/02/01 00:03:23;;;;;;;;;;;;;;;1.41;97.94;99359.34;5008605;28;19991;-63
2022/02/01 00:16:53;;;;;;;;;;;;;;;1.10;97.54;99356.06;5030859;28;19913;-62
2022/02/01 00:20:09;;;;;;;;;;;;;;;1.15;96.83;99356.88;5030257;28;20725;-62
2022/02/01 00:33:18;;;;;;;;;;;;;;;0.67;100.00;99345.19;5035118;28;19939;-63
2022/02/01 00:35:58;;;;;;;;;;;;;;;1.21;100.00;99354.38;5033218;28;20331;-63
2022/02/01 00:38:31;;;;;;;;;;;;;;;0.62;100.00;99354.38;5034515;28;19960;-62
2022/02/01 00:41:03;;;;;;;;;;;;;;;1.01;100.00;99346.03;5034661;28;20035;-63
2022/02/01 00:43:28;;;;;;;;;;;;;;;0.45;100.00;99341.03;5034336;28;19913;-62
2022/02/01 00:45:53;;;;;;;;;;;;;;;0.54;100.00;99343.53;5034549;28;19913;-63
2022/02/01 00:48:19;;;;;;;;;;;;;;;0.54;100.00;99335.19;5034556;28;20341;-64
2022/02/01 00:50:44;;;;;;;;;;;;;;;0.49;100.00;99337.69;5034339;28;19913;-63
2022/02/01 00:53:09;;;;;;;;;;;;;;;0.69;100.00;99330.22;5032984;28;19921;-63
2022/02/01 00:55:35;;;;;;;;;;;;;;;0.35;100.00;99341.00;5034329;28;19912;-62
2022/02/01 00:58:00;;;;;;;;;;;;;;;0.29;100.00;99331.81;5034117;28;19913;-62
2022/02/01 01:03:01;;;;;;;;;;;;;;;0.30;100.00;99340.16;4259162;23;10000556;-63
2022/02/01 01:05:26;;;;;;;;;;;;;;;0.59;100.00;99326.88;5013386;28;19918;-63
2022/02/01 01:07:51;;;;;;;;;;;;;;;0.64;100.00;99325.19;5014258;28;20036;-63
2022/02/01 01:10:16;;;;;;;;;;;;;;;0.48;100.00;99325.16;5014472;28;20331;-63
2022/02/01 01:13:00;;;;;;;;;;;;;;;0.56;100.00;99329.34;5014249;28;19913;-63
2022/02/01 01:15:28;;;;;;;;;;;;;;;0.74;100.00;99329.38;5014107;28;19919;-63
2022/02/01 01:45:18;;;;;;;;;;;;;;;1.38;100.00;99284.28;5013432;28;19920;-62
2022/02/01 01:53:15;;;;;;;;;;;;;;;1.01;100.00;99260.97;5013655;28;20303;-62
2022/02/01 01:55:41;;;;;;;;;;;;;;;1.06;100.00;99274.34;5011951;28;19944;-62
2022/02/01 01:58:07;;;;;;;;;;;;;;;1.15;100.00;99263.50;5013348;28;19948;-63
2022/02/01 02:03:01;;;;;;;;;;;;;;;1.00;100.00;99266.00;5013025;28;19957;-62
2022/02/01 02:05:26;;;;;;;;;;;;;;;0.98;100.00;99267.66;5013146;28;19964;-62
2022/02/01 02:07:52;;;;;;;;;;;;;;;1.46;100.00;99270.91;5013091;28;20338;-62
2022/02/01 02:10:18;;;;;;;;;;;;;;;0.88;100.00;99261.84;5013093;28;19976;-62
2022/02/01 02:15:23;;;;;;;;;;;;;;;0.73;100.00;99256.88;5012787;28;20016;-62
2022/02/01 02:17:49;;;;;;;;;;;;;;;0.89;100.00;99254.34;5012682;28;19914;-62
2022/02/01 02:20:14;;;;;;;;;;;;;;;0.87;100.00;99250.19;5012489;28;19928;-61
2022/02/01 02:22:39;;;;;;;;;;;;;;;0.95;100.00;99253.53;5011082;28;20024;-61
2022/02/01 02:25:05;;;;;;;;;;;;;;;0.76;100.00;99249.34;5012719;28;20008;-61
2022/02/01 02:27:30;;;;;;;;;;;;;;;0.73;100.00;99246.88;5012904;28;19921;-62
2022/02/01 02:29:55;;;;;;;;;;;;;;;0.76;100.00;99251.84;5013099;28;19920;-62
2022/02/01 02:32:21;;;;;;;;;;;;;;;0.87;100.00;99247.69;5012367;28;19917;-62
2022/02/01 02:34:46;;;;;;;;;;;;;;;0.45;100.00;99242.69;5012429;28;19921;-62
2022/02/01 02:37:16;;;;;;;;;;;;;;;0.89;100.00;99244.34;5011291;28;19913;-62
2022/02/01 02:39:49;;;;;;;;;;;;;;;1.06;100.00;99248.47;5011108;28;19920;-62
2022/02/01 02:42:27;;;;;;;;;;;;;;;0.98;100.00;99243.50;5012208;28;19943;-62
2022/02/01 02:45:05;;;;;;;;;;;;;;;0.64;100.00;99239.34;5012294;28;19921;-63
2022/02/01 02:47:30;;;;;;;;;;;;;;;0.51;100.00;99242.72;5011093;28;20016;-62
2022/02/01 02:49:56;;;;;;;;;;;;;;;0.23;100.00;99239.34;5012638;28;19999;-62
2022/02/01 02:52:23;;;;;;;;;;;;;;;0.00;100.00;99241.81;5012107;28;19913;-62
2022/02/01 02:54:48;;;;;;;;;;;;;;;0.28;100.00;99245.19;5012232;28;19917;-64
2022/02/01 02:57:14;;;;;;;;;;;;;;;0.46;100.00;99244.34;5012341;28;19927;-62
2022/02/01 02:59:39;;;;;;;;;;;;;;;0.37;100.00;99239.38;5011980;28;19960;-62
2022/02/01 03:02:05;;;;;;;;;;;;;;;0.06;100.00;99240.97;5012214;28;20310;-62
2022/02/01 03:04:31;;;;;;;;;;;;;;;0.42;100.00;99242.69;5012328;28;19920;-62
2022/02/01 03:06:57;;;;;;;;;;;;;;;0.34;100.00;99237.69;5012048;28;19913;-62
2022/02/01 03:09:23;;;;;;;;;;;;;;;0.02;100.00;99246.00;5012016;28;19964;-62
2022/02/01 03:11:50;;;;;;;;;;;;;;;0.17;100.00;99249.34;5011942;28;20358;-62
2022/02/01 03:14:27;;;;;;;;;;;;;;;0.20;100.00;99256.03;5010579;28;19913;-62
2022/02/01 03:22:15;;;;;;;;;;;;;;;0.11;100.00;99251.00;5011501;28;19924;-63
2022/02/01 03:24:40;;;;;;;;;;;;;;;0.19;100.00;99254.34;5011371;28;19913;-62
2022/02/01 03:27:06;;;;;;;;;;;;;;;0.36;100.00;99252.69;5010526;28;19913;-62
2022/02/01 03:29:31;;;;;;;;;;;;;;;0.49;100.00;99245.22;5011710;28;19996;-62
2022/02/01 03:31:57;;;;;;;;;;;;;;;0.37;100.00;99250.19;5011584;28;20630;-62
2022/02/01 03:34:22;;;;;;;;;;;;;;;0.51;100.00;99250.22;5011620;28;19917;-62
2022/02/01 03:36:47;;;;;;;;;;;;;;;0.25;100.00;99241.84;5011624;28;19913;-62
2022/02/01 03:39:14;;;;;;;;;;;;;;;0.40;100.00;99239.34;5011436;28;19924;-62
2022/02/01 03:41:39;;;;;;;;;;;;;;;0.47;100.00;99239.38;5011524;28;20375;-63
2022/02/01 03:44:05;;;;;;;;;;;;;;;0.30;100.00;99243.50;5011132;28;19932;-62
2022/02/01 03:46:30;;;;;;;;;;;;;;;0.42;100.00;99231.03;5011192;28;20353;-62
2022/02/01 03:48:56;;;;;;;;;;;;;;;0.48;100.00;99235.19;5009937;28;19918;-62
2022/02/01 03:51:21;;;;;;;;;;;;;;;0.73;100.00;99236.88;5011123;28;19921;-63
2022/02/01 03:53:46;;;;;;;;;;;;;;;0.78;100.00;99232.69;5010990;28;19917;-62
2022/02/01 03:56:12;;;;;;;;;;;;;;;0.43;100.00;99236.88;5009524;28;20386;-62
2022/02/01 03:58:37;;;;;;;;;;;;;;;0.67;100.00;99234.38;5009905;28;19913;-62
2022/02/01 04:01:02;;;;;;;;;;;;;;;0.68;100.00;99226.03;5010909;28;20008;-65
2022/02/01 04:03:28;;;;;;;;;;;;;;;0.69;100.00;99235.19;5009257;28;19967;-62
2022/02/01 04:05:53;;;;;;;;;;;;;;;0.63;100.00;99230.22;5009982;28;19914;-62
2022/02/01 04:08:19;;;;;;;;;;;;;;;0.76;100.00;99231.84;5010915;28;19917;-62
2022/02/01 04:10:46;;;;;;;;;;;;;;;0.96;100.00;99224.31;5011269;28;20051;-62
2022/02/01 04:13:12;;;;;;;;;;;;;;;1.05;100.00;99230.13;5011072;28;20357;-63
2022/02/01 04:15:37;;;;;;;;;;;;;;;1.35;100.00;99232.53;5010155;28;19914;-62
2022/02/01 04:18:02;;;;;;;;;;;;;;;1.27;100.00;99235.94;5010974;28;19913;-63
2022/02/01 04:20:28;;;;;;;;;;;;;;;1.21;100.00;99231.75;5010798;28;20287;-62
2022/02/01 04:22:53;;;;;;;;;;;;;;;1.19;100.00;99235.94;5010633;28;20360;-66
2022/02/01 04:25:18;;;;;;;;;;;;;;;1.50;100.00;99235.00;5010120;28;19920;-63
2022/02/01 04:27:44;;;;;;;;;;;;;;;1.16;100.00;99240.13;5010350;28;19917;-63
2022/02/01 04:30:11;;;;;;;;;;;;;;;1.17;100.00;99239.28;5009929;28;19914;-64
2022/02/01 04:32:37;;;;;;;;;;;;;;;0.86;100.00;99236.00;5010473;28;19983;-63
2022/02/01 04:35:04;;;;;;;;;;;;;;;1.13;100.00;99220.13;5009665;28;20288;-63
2022/02/01 04:37:29;;;;;;;;;;;;;;;0.92;100.00;99210.97;5009279;28;20007;-62
2022/02/01 04:39:55;;;;;;;;;;;;;;;1.02;100.00;99206.78;5010583;28;19965;-62
2022/02/01 04:42:20;;;;;;;;;;;;;;;0.95;100.00;99211.00;5010899;28;19913;-62
2022/02/01 04:44:46;;;;;;;;;;;;;;;1.36;100.00;99216.69;5010520;28;19925;-62
2022/02/01 04:47:11;;;;;;;;;;;;;;;1.10;100.00;99225.13;5010495;28;19924;-62
2022/02/01 04:49:36;;;;;;;;;;;;;;;1.17;100.00;99234.28;5010820;28;20359;-62
2022/02/01 04:52:02;;;;;;;;;;;;;;;1.07;100.00;99230.13;5009798;28;19921;-61
2022/02/01 04:54:27;;;;;;;;;;;;;;;1.15;100.00;99229.25;5010616;28;20012;-64
2022/02/01 04:56:52;;;;;;;;;;;;;;;1.13;100.00;99223.44;5010550;28;19981;-61
2022/02/01 04:59:18;;;;;;;;;;;;;;;1.26;100.00;99231.75;5010493;28;19914;-62
2022/02/01 05:01:43;;;;;;;;;;;;;;;1.13;100.00;99223.44;5010559;28;19968;-62
2022/02/01 05:04:09;;;;;;;;;;;;;;;1.36;100.00;99224.22;5009299;28;19913;-61
2022/02/01 05:06:35;;;;;;;;;;;;;;;1.19;100.00;99238.44;5010043;28;20463;-63
2022/02/01 05:09:01;;;;;;;;;;;;;;;1.00;100.00;99234.31;5010614;28;19964;-62
2022/02/01 05:11:26;;;;;;;;;;;;;;;1.10;100.00;99235.97;5010420;28;19973;-61
2022/02/01 05:16:24;;;;;;;;;;;;;;;0.96;100.00;99240.16;5013186;28;19913;-62
2022/02/01 05:19:00;;;;;;;;;;;;;;;1.28;100.00;99235.91;5013772;28;19917;-62
2022/02/01 05:21:26;;;;;;;;;;;;;;;0.95;100.00;99225.16;5014013;28;19917;-63
2022/02/01 05:23:52;;;;;;;;;;;;;;;0.92;100.00;99223.50;5012577;28;19913;-63
2022/02/01 05:26:18;;;;;;;;;;;;;;;1.11;100.00;99221.78;5013751;28;20417;-66
2022/02/01 05:28:43;;;;;;;;;;;;;;;1.01;100.00;99217.66;5013807;28;20007;-62
2022/02/01 05:31:09;;;;;;;;;;;;;;;1.17;100.00;99212.56;5013720;28;20038;-63
2022/02/01 05:33:35;;;;;;;;;;;;;;;0.99;100.00;99205.13;5013574;28;20433;-63
2022/02/01 05:36:01;;;;;;;;;;;;;;;0.88;100.00;99219.31;5013964;28;20295;-63
2022/02/01 05:38:27;;;;;;;;;;;;;;;0.81;100.00;99218.50;5013766;28;20723;-64
2022/02/01 05:40:52;;;;;;;;;;;;;;;0.84;100.00;99227.66;5013428;28;19918;-64
2022/02/01 05:43:22;;;;;;;;;;;;;;;0.94;100.00;99219.31;5013230;28;19917;-66
2022/02/01 05:45:48;;;;;;;;;;;;;;;0.55;100.00;99214.38;5013484;28;19968;-65
2022/02/01 05:48:15;;;;;;;;;;;;;;;1.26;100.00;99210.06;5012708;28;20383;-64
2022/02/01 05:50:41;;;;;;;;;;;;;;;1.11;100.00;99222.59;5011798;28;19917;-65
2022/02/01 05:53:06;;;;;;;;;;;;;;;1.13;100.00;99223.44;5013557;28;19960;-65
2022/02/01 05:55:34;;;;;;;;;;;;;;;0.93;100.00;99219.31;5012413;28;19913;-64
2022/02/01 05:57:59;;;;;;;;;;;;;;;0.74;100.00;99221.00;5010042;28;19913;-64
2022/02/01 06:00:24;;;;;;;;;;;;;;;0.75;100.00;99221.00;5010657;28;20020;-64
2022/02/01 06:02:50;;;;;;;;;;;;;;;0.89;100.00;99221.00;5011500;28;19917;-64
2022/02/01 06:05:16;;;;;;;;;;;;;;;0.54;100.00;99227.69;5012127;28;19913;-64
2022/02/01 06:07:41;;;;;;;;;;;;;;;0.90;100.00;99232.66;5012234;28;19940;-64
2022/02/01 06:10:07;;;;;;;;;;;;;;;0.82;100.00;99227.69;5010952;28;19917;-65
2022/02/01 06:12:58;;;;;;;;;;;;;;;1.16;100.00;99225.09;5010979;28;19947;-63
2022/02/01 06:15:25;;;;;;;;;;;;;;;0.78;100.00;99232.69;5011204;28;19914;-64
2022/02/01 06:17:50;;;;;;;;;;;;;;;0.90;100.00;99232.66;5012841;28;19975;-64
2022/02/01 06:20:15;;;;;;;;;;;;;;;0.88;100.00;99239.34;5013103;28;19913;-64
2022/02/01 06:22:41;;;;;;;;;;;;;;;0.74;100.00;99234.34;5012637;28;20315;-64
2022/02/01 06:25:06;;;;;;;;;;;;;;;0.88;100.00;99242.69;5012832;28;19959;-63
2022/02/01 06:27:32;;;;;;;;;;;;;;;0.79;100.00;99237.66;5012256;28;19913;-63
2022/02/01 06:29:57;;;;;;;;;;;;;;;0.97;100.00;99238.50;5012239;28;19918;-63
2022/02/01 06:32:23;;;;;;;;;;;;;;;1.15;100.00;99250.97;5012860;28;19917;-63
2022/02/01 06:34:48;;;;;;;;;;;;;;;1.47;100.00;99247.53;5012646;28;19921;-64
2022/02/01 06:37:14;;;;;;;;;;;;;;;1.19;100.00;99252.63;5012499;28;19989;-64
2022/02/01 06:39:41;;;;;;;;;;;;;;;1.39;100.00;99256.72;5012600;28;20452;-64
2022/02/01 06:42:08;;;;;;;;;;;;;;;1.27;100.00;99255.94;5012574;28;20411;-63
2022/02/01 06:44:33;;;;;;;;;;;;;;;1.52;100.00;99255.03;5010736;28;19921;-63
2022/02/01 06:46:58;;;;;;;;;;;;;;;1.35;100.00;99261.75;5012578;28;19913;-63
2022/02/01 06:49:23;;;;;;;;;;;;;;;1.25;100.00;99267.63;5011137;28;19920;-63
2022/02/01 06:51:49;;;;;;;;;;;;;;;1.73;100.00;99268.28;5012398;28;19917;-63
2022/02/01 06:54:14;;;;;;;;;;;;;;;1.66;100.00;99264.13;5012283;28;19921;-63
2022/02/01 06:56:40;;;;;;;;;;;;;;;1.57;100.00;99246.66;5012258;28;20389;-63
2022/02/01 06:59:05;;;;;;;;;;;;;;;1.65;100.00;99247.47;5010668;28;19913;-63
2022/02/01 07:01:31;;;;;;;;;;;;;;;1.61;100.00;99243.31;5012335;28;20012;-64
2022/02/01 07:03:57;;;;;;;;;;;;;;;1.45;100.00;99248.34;5012318;28;19918;-65
2022/02/01 07:06:23;;;;;;;;;;;;;;;1.51;100.00;99245.84;5011927;28;20350;-64
2022/02/01 07:08:49;;;;;;;;;;;;;;;1.60;100.00;99239.16;5010754;28;19924;-64
2022/02/01 07:11:18;;;;;;;;;;;;;;;1.65;100.00;99237.44;5010756;28;19917;-64
2022/02/01 07:13:45;;;;;;;;;;;;;;;1.73;100.00;99263.28;5011730;28;19920;-64
2022/02/01 07:16:11;;;;;;;;;;;;;;;2.01;100.00;99258.97;5010758;28;19939;-63
2022/02/01 07:18:36;;;;;;;;;;;;;;;2.13;100.00;99260.56;5011776;28;20342;-64
2022/02/01 07:21:02;;;;;;;;;;;;;;;2.14;100.00;99260.53;5011987;28;19924;-64
2022/02/01 07:23:27;;;;;;;;;;;;;;;2.27;100.00;99268.84;5011920;28;19920;-64
2022/02/01 07:25:54;;;;;;;;;;;;;;;2.29;100.00;99272.16;5011582;28;19914;-65
2022/02/01 07:28:20;;;;;;;;;;;;;;;2.49;100.00;99261.16;5011603;28;19968;-65
2022/02/01 07:30:46;;;;;;;;;;;;;;;2.45;100.00;99261.19;5011586;28;19921;-65
2022/02/01 07:33:12;;;;;;;;;;;;;;;2.55;100.00;99256.09;5011647;28;19913;-64
2022/02/01 07:35:38;;;;;;;;;;;;;;;2.64;100.00;99265.22;5011734;28;19987;-64
2022/02/01 07:38:04;;;;;;;;;;;;;;;2.63;100.00;99271.09;5010786;28;19964;-64
2022/02/01 07:40:30;;;;;;;;;;;;;;;2.64;100.00;99268.56;5011311;28;19913;-64
2022/02/01 07:42:55;;;;;;;;;;;;;;;2.65;100.00;99266.91;5011180;28;20028;-64
2022/02/01 07:45:25;;;;;;;;;;;;;;;2.84;100.00;99267.56;5011216;28;20287;-65
2022/02/01 07:47:50;;;;;;;;;;;;;;;2.68;100.00;99261.84;5011407;28;19920;-65
2022/02/01 07:50:16;;;;;;;;;;;;;;;2.72;100.00;99260.13;5010017;28;19914;-65
2022/02/01 07:52:41;;;;;;;;;;;;;;;2.67;100.00;99257.69;5011492;28;19917;-65
2022/02/01 07:55:07;;;;;;;;;;;;;;;2.58;100.00;99266.09;5011683;28;20306;-64
2022/02/01 07:57:32;;;;;;;;;;;;;;;2.85;100.00;99265.06;5009603;28;20450;-65
2022/02/01 07:59:57;;;;;;;;;;;;;;;2.80;100.00;99269.25;5011100;28;20616;-65
2022/02/01 08:02:25;;;;;;;;;;;;;;;2.77;100.00;99276.00;5011213;28;20352;-65
2022/02/01 08:04:52;;;;;;;;;;;;;;;2.98;100.00;99289.19;5011202;28;19935;-66
2022/02/01 08:07:19;;;;;;;;;;;;;;;3.09;100.00;99292.41;5009707;28;20303;-65
2022/02/01 08:09:48;;;;;;;;;;;;;;;3.19;100.00;99283.94;5010095;28;19913;-65
2022/02/01 08:20:24;;;;;;;;;;;;;;;3.02;100.00;99270.75;5010952;28;20338;-66
2022/02/01 08:23:02;;;;;;;;;;;;;;;3.05;100.00;99265.69;5011008;28;19914;-66
2022/02/01 08:25:27;;;;;;;;;;;;;;;3.31;100.00;99276.31;5009660;28;20004;-66
2022/02/01 08:27:54;;;;;;;;;;;;;;;3.41;100.00;99277.03;5011237;28;19971;-66
2022/02/01 08:30:19;;;;;;;;;;;;;;;3.29;100.00;99272.13;5010980;28;20366;-67
2022/02/01 08:32:44;;;;;;;;;;;;;;;3.39;100.00;99269.50;5011385;28;20415;-66
2022/02/01 08:35:10;;;;;;;;;;;;;;;3.40;100.00;99272.88;5009674;28;19913;-66
2022/02/01 08:37:35;;;;;;;;;;;;;;;3.41;100.00;99270.34;5011281;28;20371;-67
2022/02/01 08:40:00;;;;;;;;;;;;;;;3.71;100.00;99268.31;5011253;28;20008;-67
2022/02/01 08:42:26;;;;;;;;;;;;;;;3.67;100.00;99271.72;5011090;28;19918;-67
2022/02/01 08:44:52;;;;;;;;;;;;;;;3.67;100.00;99267.53;5009701;28;19914;-67
2022/02/01 08:47:18;;;;;;;;;;;;;;;3.62;100.00;99284.34;5010989;28;19924;-67
2022/02/01 08:49:43;;;;;;;;;;;;;;;3.61;100.00;99274.28;5012720;28;19913;-67
2022/02/01 08:52:13;;;;;;;;;;;;;;;3.68;100.00;99261.66;5015087;28;20011;-67
2022/02/01 08:54:39;;;;;;;;;;;;;;;3.66;100.00;99257.50;5014699;28;19963;-67
2022/02/01 08:59:50;;;;;;;;;;;;;;;3.41;100.00;99259.44;5014355;28;19920;-67
2022/02/01 09:02:16;;;;;;;;;;;;;;;3.74;100.00;99264.09;5012952;28;19922;-66
2022/02/01 09:04:42;;;;;;;;;;;;;;;3.75;100.00;99262.41;5013216;28;20358;-66
2022/02/01 09:07:07;;;;;;;;;;;;;;;3.53;100.00;99262.66;5014420;28;19914;-66
2022/02/01 09:09:33;;;;;;;;;;;;;;;3.85;100.00;99251.38;5014224;28;19920;-66
2022/02/01 09:11:58;;;;;;;;;;;;;;;3.97;100.00;99249.53;5014192;28;20280;-67
2022/02/01 09:14:24;;;;;;;;;;;;;;;3.53;100.00;99250.97;5014422;28;19920;-66
2022/02/01 09:16:50;;;;;;;;;;;;;;;3.69;100.00;99253.25;5013817;28;19914;-66
2022/02/01 09:19:17;;;;;;;;;;;;;;;3.59;100.00;99250.88;5014479;28;20470;-66
2022/02/01 09:21:44;;;;;;;;;;;;;;;3.40;100.00;99245.25;5014233;28;19917;-66
2022/02/01 09:24:09;;;;;;;;;;;;;;;3.51;100.00;99253.47;5013794;28;19922;-66
2022/02/01 09:26:35;;;;;;;;;;;;;;;3.58;100.00;99244.19;5014012;28;19921;-66
2022/02/01 09:29:00;;;;;;;;;;;;;;;3.60;100.00;99243.34;5013809;28;19909;-66
2022/02/01 09:31:25;;;;;;;;;;;;;;;3.81;100.00;99235.50;5013708;28;19990;-67
2022/02/01 09:33:50;;;;;;;;;;;;;;;3.56;100.00;99254.28;5012898;28;20012;-67
2022/02/01 09:36:16;;;;;;;;;;;;;;;3.61;100.00;99244.13;5013750;28;20244;-66
2022/02/01 09:38:42;;;;;;;;;;;;;;;3.52;100.00;99240.09;5013777;28;19952;-66
2022/02/01 09:41:07;;;;;;;;;;;;;;;3.51;100.00;99243.44;5013970;28;19913;-66
2022/02/01 09:43:33;;;;;;;;;;;;;;;3.67;100.00;99237.38;5013770;28;20379;-66
2022/02/01 09:45:59;;;;;;;;;;;;;;;3.49;100.00;99230.88;5013272;28;19913;-67
2022/02/01 09:48:24;;;;;;;;;;;;;;;3.68;100.00;99215.59;5012319;28;20027;-67
2022/02/01 09:50:50;;;;;;;;;;;;;;;3.52;100.00;99225.00;5013633;28;19913;-66
2022/02/01 09:53:16;;;;;;;;;;;;;;;3.68;100.00;99218.09;5013094;28;20024;-66
2022/02/01 09:55:41;;;;;;;;;;;;;;;3.68;100.00;99218.09;5013698;28;19997;-66
2022/02/01 09:58:10;;;;;;;;;;;;;;;3.90;100.00;99212.75;5013150;28;19963;-66
2022/02/01 10:00:44;;;;;;;;;;;;;;;3.68;100.00;99208.06;5012282;28;20021;-66
2022/02/01 10:03:20;;;;;;;;;;;;;;;3.76;100.00;99202.09;5012897;28;20381;-66
2022/02/01 10:06:02;;;;;;;;;;;;;;;3.62;100.00;99198.09;5013110;28;19913;-66
2022/02/01 10:08:27;;;;;;;;;;;;;;;3.71;100.00;99201.31;5012964;28;19917;-66
2022/02/01 10:10:53;;;;;;;;;;;;;;;3.88;100.00;99193.53;5012689;28;19964;-66
2022/02/01 10:13:19;;;;;;;;;;;;;;;3.66;100.00;99184.63;5013208;28;19944;-66
2022/02/01 10:16:43;;;;;;;;;;;;;;;3.77;100.00;99190.31;5012928;28;19936;-65
2022/02/01 10:18:43;;;;;;;;;;;;;;;3.60;100.00;99193.09;5008592;28;19939;-65
2022/02/01 10:21:10;;;;;;;;;;;;;;;3.77;100.00;99185.31;5013137;28;20430;-66
2022/02/01 10:23:38;;;;;;;;;;;;;;;3.67;100.00;99181.25;5012560;28;19913;-66
2022/02/01 10:26:03;;;;;;;;;;;;;;;3.79;100.00;99184.44;5012738;28;19944;-66
2022/02/01 10:28:36;;;;;;;;;;;;;;;3.87;100.00;99176.78;5012588;28;19913;-66
2022/02/01 10:31:12;;;;;;;;;;;;;;;3.71;100.00;99181.19;5012518;28;19913;-65
2022/02/01 10:36:10;;;;;;;;;;;;;;;3.62;100.00;99186.34;5012385;28;19917;-66
2022/02/01 10:38:35;;;;;;;;;;;;;;;3.57;100.00;99182.22;5012548;28;20012;-65
2022/02/01 10:41:01;;;;;;;;;;;;;;;3.67;100.00;99184.59;5010967;28;20008;-66
2022/02/01 10:43:28;;;;;;;;;;;;;;;3.63;100.00;99179.63;5011023;28;19914;-67
2022/02/01 10:45:59;;;;;;;;;;;;;;;3.74;100.00;99173.63;5012250;28;20520;-65
2022/02/01 10:48:26;;;;;;;;;;;;;;;3.61;100.00;99174.63;5012144;28;19953;-66
2022/02/01 10:51:03;;;;;;;;;;;;;;;3.69;100.00;99169.50;5012368;28;19913;-65
2022/02/01 10:53:30;;;;;;;;;;;;;;;3.56;100.00;99163.00;5012137;28;19997;-65
2022/02/01 10:55:57;;;;;;;;;;;;;;;3.49;100.00;99165.59;5012188;28;19924;-65
2022/02/01 10:58:22;;;;;;;;;;;;;;;3.57;100.00;99164.63;5012032;28;19913;-65
2022/02/01 11:00:47;;;;;;;;;;;;;;;3.66;100.00;99157.00;5012256;28;19928;-67
2022/02/01 11:03:13;;;;;;;;;;;;;;;3.64;100.00;99153.66;5011589;28;19917;-66
2022/02/01 11:05:41;;;;;;;;;;;;;;;3.49;100.00;99149.66;5012137;28;19921;-66
2022/02/01 11:08:12;;;;;;;;;;;;;;;3.69;100.00;99139.34;5012243;28;19913;-66
2022/02/01 11:10:42;;;;;;;;;;;;;;;3.72;100.00;99134.28;5012080;28;19925;-66
2022/02/01 11:13:08;;;;;;;;;;;;;;;3.60;100.00;99126.94;5010832;28;20001;-66
2022/02/01 11:15:33;;;;;;;;;;;;;;;3.68;100.00;99125.13;5011927;28;19913;-66
2022/02/01 11:18:08;;;;;;;;;;;;;;;3.59;100.00;99121.06;5011858;28;20394;-66
2022/02/01 11:20:33;;;;;;;;;;;;;;;3.76;100.00;99121.66;5011815;28;19914;-66
2022/02/01 11:23:10;;;;;;;;;;;;;;;3.53;100.00;99121.97;5012327;28;19920;-66
2022/02/01 11:25:46;;;;;;;;;;;;;;;3.51;100.00;99118.66;5011428;28;19917;-66
2022/02/01 11:28:58;;;;;;;;;;;;;;;3.74;100.00;99115.84;5011374;28;20020;-66
2022/02/01 11:31:27;;;;;;;;;;;;;;;3.78;100.00;99119.13;5011211;28;19909;-66
2022/02/01 11:33:52;;;;;;;;;;;;;;;3.67;100.00;99118.44;5011306;28;19913;-65
2022/02/01 11:36:17;;;;;;;;;;;;;;;3.82;100.00;99119.06;5011355;28;19920;-67
2022/02/01 11:38:52;;;;;;;;;;;;;;;3.83;100.00;99119.88;5011955;28;19933;-66
2022/02/01 11:41:19;;;;;;;;;;;;;;;3.65;100.00;99113.44;5011418;28;19913;-66
2022/02/01 11:43:46;;;;;;;;;;;;;;;3.73;100.00;99108.28;5011267;28;20272;-66
2022/02/01 11:46:17;;;;;;;;;;;;;;;3.82;100.00;99113.22;5010045;28;19936;-66
2022/02/01 11:48:49;;;;;;;;;;;;;;;3.92;100.00;99114.72;5009879;28;20300;-66
2022/02/01 11:51:16;;;;;;;;;;;;;;;3.88;100.00;99116.44;5011170;28;19913;-66
2022/02/01 11:53:43;;;;;;;;;;;;;;;4.02;100.00;99119.56;5011247;28;20379;-66
2022/02/01 11:56:11;;;;;;;;;;;;;;;4.00;100.00;99121.28;5011103;28;19987;-66
2022/02/01 11:58:37;;;;;;;;;;;;;;;4.10;100.00;99119.47;5011021;28;19914;-67
2022/02/01 12:01:05;;;;;;;;;;;;;;;4.14;100.00;99121.09;5011184;28;19913;-66
2022/02/01 12:03:37;;;;;;;;;;;;;;;4.06;100.00;99118.66;5010429;28;20395;-66
2022/02/01 12:06:07;;;;;;;;;;;;;;;4.01;100.00;99117.94;5011281;28;19922;-67
2022/02/01 12:08:34;;;;;;;;;;;;;;;3.98;100.00;99125.50;5009776;28;19914;-67
2022/02/01 12:11:01;;;;;;;;;;;;;;;3.70;100.00;99124.28;5010951;28;19937;-66
2022/02/01 12:13:27;;;;;;;;;;;;;;;3.97;100.00;99125.53;5011108;28;20007;-65
2022/02/01 12:15:54;;;;;;;;;;;;;;;3.94;100.00;99120.56;5010671;28;20827;-66
2022/02/01 12:18:37;;;;;;;;;;;;;;;4.10;100.00;99116.97;5010973;28;19992;-66
2022/02/01 12:21:21;;;;;;;;;;;;;;;4.15;100.00;99120.22;5011233;28;19913;-65
2022/02/01 12:23:48;;;;;;;;;;;;;;;4.12;100.00;99126.13;5011617;28;19960;-65
2022/02/01 12:26:22;;;;;;;;;;;;;;;3.97;100.00;99125.53;5014896;28;19917;-65
2022/02/01 12:28:50;;;;;;;;;;;;;;;3.95;100.00;99125.56;5014836;28;19953;-65
2022/02/01 12:31:15;;;;;;;;;;;;;;;4.20;100.00;99128.50;5014931;28;20091;-65
2022/02/01 12:33:45;;;;;;;;;;;;;;;3.91;100.00;99145.72;5014891;28;20487;-66
2022/02/01 12:36:12;;;;;;;;;;;;;;;4.07;100.00;99142.97;5014696;28;19913;-65
2022/02/01 12:38:40;;;;;;;;;;;;;;;4.03;100.00;99145.53;5014976;28;20294;-65
2022/02/01 12:41:13;;;;;;;;;;;;;;;4.07;100.00;99137.94;5014193;28;20017;-66
2022/02/01 12:45:42;;;;;;;;;;;;;;;3.93;100.00;99141.50;5013235;28;19989;-66
2022/02/01 12:46:52;;;;;;;;;;;;;;;3.96;100.00;99139.78;5014397;28;19967;-66
2022/02/01 12:49:18;;;;;;;;;;;;;;;3.95;100.00;99135.63;5014648;28;19956;-66
2022/02/01 12:51:47;;;;;;;;;;;;;;;3.87;100.00;99156.69;5014483;28;19945;-66
2022/02/01 12:54:39;;;;;;;;;;;;;;;3.94;100.00;99160.78;5013091;28;20307;-66
2022/02/01 12:57:12;;;;;;;;;;;;;;;3.90;100.00;99154.13;5013059;28;20018;-66
2022/02/01 12:59:43;;;;;;;;;;;;;;;3.99;100.00;99147.28;5014613;28;20299;-66
2022/02/01 13:02:09;;;;;;;;;;;;;;;3.87;100.00;99164.22;5012856;28;19921;-66
2022/02/01 13:04:35;;;;;;;;;;;;;;;3.80;100.00;99162.66;5013156;28;19913;-66
2022/02/01 13:07:00;;;;;;;;;;;;;;;3.97;100.00;99160.72;5014085;28;20296;-67
2022/02/01 13:15:04;;;;;;;;;;;;;;;3.86;100.00;99170.94;5014242;28;19983;-66
2022/02/01 13:20:05;;;;;;;;;;;;;;;3.66;100.00;99182.13;5014027;28;20015;-66
2022/02/01 13:22:32;;;;;;;;;;;;;;;3.72;100.00;99177.00;5013690;28;20375;-66
2022/02/01 13:25:05;;;;;;;;;;;;;;;3.44;100.00;99179.88;5013593;28;19983;-66
2022/02/01 13:27:30;;;;;;;;;;;;;;;3.42;100.00;99186.63;5014095;28;19910;-66
2022/02/01 13:30:14;;;;;;;;;;;;;;;3.67;100.00;99189.63;5012238;28;19960;-67
2022/02/01 13:32:42;;;;;;;;;;;;;;;3.51;100.00;99205.75;5012619;28;19987;-67
2022/02/01 13:35:08;;;;;;;;;;;;;;;3.27;100.00;99204.34;5012709;28;19959;-67
2022/02/01 13:37:35;;;;;;;;;;;;;;;3.53;100.00;99201.53;5013826;28;19920;-67
2022/02/01 13:40:01;;;;;;;;;;;;;;;3.43;100.00;99200.81;5013884;28;19951;-66
2022/02/01 13:42:33;;;;;;;;;;;;;;;3.39;100.00;99204.22;5013303;28;19913;-66
2022/02/01 13:45:05;;;;;;;;;;;;;;;3.27;100.00;99204.34;5013516;28;19913;-66
2022/02/01 13:47:37;;;;;;;;;;;;;;;3.20;100.00;99214.50;5013400;28;19924;-66
2022/02/01 13:50:08;;;;;;;;;;;;;;;3.03;100.00;99219.69;5013598;28;19909;-66
2022/02/01 13:52:33;;;;;;;;;;;;;;;3.13;100.00;99223.75;5013476;28;19909;-65
2022/02/01 13:54:59;;;;;;;;;;;;;;;3.13;100.00;99228.78;5011970;28;19968;-65
2022/02/01 13:57:25;;;;;;;;;;;;;;;2.97;100.00;99228.97;5013256;28;19917;-66
2022/02/01 13:59:51;;;;;;;;;;;;;;;3.08;100.00;99220.47;5011954;28;19914;-65
2022/02/01 14:02:32;;;;;;;;;;;;;;;3.19;100.00;99215.34;5013191;28;19917;-68
2022/02/01 14:05:05;;;;;;;;;;;;;;;2.99;100.00;99218.03;5013233;28;19914;-66
2022/02/01 14:10:30;;;;;;;;;;;;;;;2.86;100.00;99214.00;5013095;28;19944;-67
2022/02/01 14:34:03;;;;;;;;;;;;;;;2.95;100.00;99211.41;5012958;28;20244;-65
2022/02/01 14:36:32;;;;;;;;;;;;;;;3.17;100.00;99205.31;5012573;28;20353;-67
2022/02/01 14:39:07;;;;;;;;;;;;;;;3.15;100.00;99207.00;5011362;28;19923;-66
2022/02/01 14:46:48;;;;;;;;;;;;;;;3.01;100.00;99201.28;5012362;28;19917;-66
2022/02/01 14:49:13;;;;;;;;;;;;;;;3.13;100.00;99195.34;5012576;28;19924;-66
2022/02/01 14:51:38;;;;;;;;;;;;;;;3.09;100.00;99198.72;5012626;28;20331;-66